createdAt,value
2018-01-27T00:00:03.530Z,7.27
2018-01-27T00:01:04.372Z,7.24
2018-01-27T00:02:04.979Z,7.22
2018-01-27T00:03:03.803Z,7.23
2018-01-27T00:04:02.939Z,7.19
2018-01-27T00:05:02.922Z,7.18
2018-01-27T00:06:03.438Z,7.16
2018-01-27T00:07:03.777Z,7.15
2018-01-27T00:08:04.587Z,7.15
2018-01-27T00:09:03.233Z,7.12
2018-01-27T00:10:02.917Z,7.11
2018-01-27T00:11:04.036Z,7.12
2018-01-27T00:12:03.837Z,7.13
2018-01-27T00:13:04.334Z,7.09
2018-01-27T00:14:03.641Z,7.11
2018-01-27T00:15:03.025Z,7.09
2018-01-27T00:16:03.041Z,7.09
2018-01-27T00:17:03.118Z,7.09
2018-01-27T00:18:03.998Z,7.08
2018-01-27T00:19:03.145Z,7.06
2018-01-27T00:20:04.560Z,7.01
2018-01-27T00:21:03.631Z,7.02
2018-01-27T00:22:03.232Z,6.99
2018-01-27T00:23:03.392Z,6.96
2018-01-27T00:24:03.529Z,6.99
2018-01-27T00:25:03.412Z,6.99
2018-01-27T00:26:03.233Z,6.99
2018-01-27T00:27:03.047Z,6.98
2018-01-27T00:28:03.282Z,6.95
2018-01-27T00:29:03.590Z,6.96
2018-01-27T00:30:04.655Z,6.96
2018-01-27T00:31:04.072Z,6.95
2018-01-27T00:32:03.920Z,6.95
2018-01-27T00:33:03.190Z,6.94
2018-01-27T00:34:04.108Z,6.92
2018-01-27T00:35:04.609Z,6.9
2018-01-27T00:36:03.790Z,6.9
2018-01-27T00:37:03.022Z,6.88
2018-01-27T00:38:03.709Z,6.9
2018-01-27T00:39:03.657Z,6.85
2018-01-27T00:40:03.746Z,6.85
2018-01-27T00:41:03.054Z,6.87
2018-01-27T00:42:03.077Z,6.87
2018-01-27T00:43:04.208Z,6.88
2018-01-27T00:44:04.711Z,6.87
2018-01-27T00:45:03.284Z,6.85
2018-01-27T00:46:03.865Z,6.84
2018-01-27T00:47:06.195Z,6.81
2018-01-27T00:48:04.521Z,6.83
2018-01-27T00:49:04.482Z,6.8
2018-01-27T00:50:05.533Z,6.77
2018-01-27T00:51:04.462Z,6.78
2018-01-27T00:52:03.505Z,6.78
2018-01-27T00:53:03.194Z,6.77
2018-01-27T00:54:03.103Z,6.75
2018-01-27T00:55:03.015Z,6.8
2018-01-27T00:56:03.097Z,6.78
2018-01-27T00:57:02.969Z,6.77
2018-01-27T00:58:03.286Z,6.78
2018-01-27T00:59:03.037Z,6.74
2018-01-27T01:00:03.232Z,6.67
2018-01-27T01:01:03.120Z,6.67
2018-01-27T01:02:04.967Z,6.64
2018-01-27T01:03:03.071Z,6.65
2018-01-27T01:04:03.358Z,6.64
2018-01-27T01:05:03.147Z,6.65
2018-01-27T01:06:04.146Z,6.68
2018-01-27T01:07:04.622Z,6.65
2018-01-27T01:08:04.266Z,6.64
2018-01-27T01:09:03.944Z,6.6
2018-01-27T01:10:03.652Z,6.63
2018-01-27T01:11:03.011Z,6.6
2018-01-27T01:12:04.933Z,6.61
2018-01-27T01:13:04.651Z,6.58
2018-01-27T01:14:03.803Z,6.61
2018-01-27T01:15:03.864Z,6.61
2018-01-27T01:16:03.713Z,6.58
2018-01-27T01:17:03.228Z,6.6
2018-01-27T01:18:02.837Z,6.56
2018-01-27T01:19:03.651Z,6.6
2018-01-27T01:20:03.815Z,6.57
2018-01-27T01:21:02.962Z,6.57
2018-01-27T01:22:03.212Z,6.61
2018-01-27T01:23:03.087Z,6.6
2018-01-27T01:24:03.052Z,6.61
2018-01-27T01:25:03.259Z,6.61
2018-01-27T01:26:03.168Z,6.63
2018-01-27T01:27:03.125Z,6.61
2018-01-27T01:28:04.155Z,6.61
2018-01-27T01:29:03.229Z,6.61
2018-01-27T01:30:03.245Z,6.64
2018-01-27T01:31:03.092Z,6.63
2018-01-27T01:32:04.334Z,6.64
2018-01-27T01:33:03.772Z,6.65
2018-01-27T01:34:03.725Z,6.67
2018-01-27T01:35:03.130Z,6.65
2018-01-27T01:36:04.757Z,6.68
2018-01-27T01:37:03.955Z,6.67
2018-01-27T01:38:04.294Z,6.7
2018-01-27T01:39:02.981Z,6.7
2018-01-27T01:40:03.016Z,6.68
2018-01-27T01:41:03.243Z,6.68
2018-01-27T01:42:03.160Z,6.68
2018-01-27T01:43:03.868Z,6.7
2018-01-27T01:44:04.104Z,6.7
2018-01-27T01:45:04.088Z,6.67
2018-01-27T01:46:03.197Z,6.67
2018-01-27T01:47:04.754Z,6.63
2018-01-27T01:48:03.094Z,6.64
2018-01-27T01:49:03.177Z,6.63
2018-01-27T01:50:03.364Z,6.61
2018-01-27T01:51:03.681Z,6.6
2018-01-27T01:52:04.059Z,6.63
2018-01-27T01:53:03.085Z,6.61
2018-01-27T01:54:05.563Z,6.64
2018-01-27T01:55:03.253Z,6.63
2018-01-27T01:56:03.157Z,6.61
2018-01-27T01:57:03.163Z,6.64
2018-01-27T01:58:03.053Z,6.6
2018-01-27T01:59:03.232Z,6.64
2018-01-27T02:00:03.222Z,6.64
2018-01-27T02:01:03.554Z,6.64
2018-01-27T02:02:03.863Z,6.63
2018-01-27T02:03:03.200Z,6.64
2018-01-27T02:04:04.528Z,6.64
2018-01-27T02:05:03.105Z,6.64
2018-01-27T02:06:03.184Z,6.65
2018-01-27T02:07:03.439Z,6.63
2018-01-27T02:08:04.435Z,6.58
2018-01-27T02:09:03.920Z,6.6
2018-01-27T02:10:03.066Z,6.61
2018-01-27T02:11:02.988Z,6.6
2018-01-27T02:12:03.889Z,6.58
2018-01-27T02:13:03.066Z,6.6
2018-01-27T02:14:03.598Z,6.63
2018-01-27T02:15:03.189Z,6.63
2018-01-27T02:16:03.693Z,6.6
2018-01-27T02:17:03.866Z,6.61
2018-01-27T02:18:03.307Z,6.64
2018-01-27T02:19:03.776Z,6.61
2018-01-27T02:20:04.053Z,6.63
2018-01-27T02:21:04.601Z,6.63
2018-01-27T02:22:03.745Z,6.58
2018-01-27T02:23:04.263Z,6.57
2018-01-27T02:24:04.136Z,6.57
2018-01-27T02:25:03.221Z,6.54
2018-01-27T02:26:04.220Z,6.56
2018-01-27T02:27:03.235Z,6.56
2018-01-27T02:28:03.085Z,6.53
2018-01-27T02:29:03.940Z,6.53
2018-01-27T02:30:03.311Z,6.53
2018-01-27T02:31:04.980Z,6.53
2018-01-27T02:32:04.125Z,6.54
2018-01-27T02:33:03.100Z,6.54
2018-01-27T02:34:03.250Z,6.56
2018-01-27T02:35:03.829Z,6.58
2018-01-27T02:36:03.375Z,6.57
2018-01-27T02:37:04.133Z,6.58
2018-01-27T02:38:03.874Z,6.6
2018-01-27T02:39:03.278Z,6.54
2018-01-27T02:40:03.281Z,6.46
2018-01-27T02:41:03.357Z,6.5
2018-01-27T02:42:03.226Z,6.4
2018-01-27T02:43:04.078Z,6.36
2018-01-27T02:44:04.009Z,6.36
2018-01-27T02:45:03.444Z,6.33
2018-01-27T02:46:03.152Z,6.29
2018-01-27T02:47:03.166Z,6.26
2018-01-27T02:48:03.332Z,6.19
2018-01-27T02:49:03.391Z,6.2
2018-01-27T02:50:03.945Z,6.23
2018-01-27T02:51:04.157Z,6.26
2018-01-27T02:52:03.935Z,6.29
2018-01-27T02:53:03.366Z,6.3
2018-01-27T02:54:03.153Z,6.35
2018-01-27T02:55:03.224Z,6.36
2018-01-27T02:56:03.236Z,6.39
2018-01-27T02:57:03.983Z,6.37
2018-01-27T02:58:03.264Z,6.37
2018-01-27T02:59:03.314Z,6.33
2018-01-27T03:00:03.413Z,6.32
2018-01-27T03:01:03.382Z,6.18
2018-01-27T03:02:03.369Z,6.12
2018-01-27T03:03:04.445Z,6.05
2018-01-27T03:04:04.107Z,6.05
2018-01-27T03:05:03.792Z,6
2018-01-27T03:06:03.279Z,6.01
2018-01-27T03:07:03.112Z,6.06
2018-01-27T03:08:03.352Z,6.12
2018-01-27T03:09:03.815Z,6.13
2018-01-27T03:10:03.048Z,6.13
2018-01-27T03:11:03.139Z,6.2
2018-01-27T03:12:03.081Z,6.19
2018-01-27T03:13:03.366Z,6.25
2018-01-27T03:14:03.396Z,6.29
2018-01-27T03:15:03.503Z,6.26
2018-01-27T03:16:03.163Z,6.32
2018-01-27T03:17:03.261Z,6.28
2018-01-27T03:18:03.115Z,6.29
2018-01-27T03:19:03.347Z,6.32
2018-01-27T03:20:03.086Z,6.33
2018-01-27T03:21:03.810Z,6.33
2018-01-27T03:22:04.124Z,6.37
2018-01-27T03:23:03.921Z,6.4
2018-01-27T03:24:03.473Z,6.41
2018-01-27T03:25:03.070Z,6.44
2018-01-27T03:26:04.049Z,6.43
2018-01-27T03:27:03.956Z,6.43
2018-01-27T03:28:03.873Z,6.41
2018-01-27T03:29:03.386Z,6.39
2018-01-27T03:30:03.567Z,6.39
2018-01-27T03:31:03.322Z,6.36
2018-01-27T03:32:03.993Z,6.39
2018-01-27T03:33:03.271Z,6.37
2018-01-27T03:34:03.443Z,6.37
2018-01-27T03:35:04.051Z,6.36
2018-01-27T03:36:04.607Z,6.33
2018-01-27T03:37:03.354Z,6.36
2018-01-27T03:38:04.148Z,6.29
2018-01-27T03:39:03.702Z,6.25
2018-01-27T03:40:03.265Z,6.22
2018-01-27T03:41:03.452Z,6.18
2018-01-27T03:42:03.549Z,6.16
2018-01-27T03:43:03.622Z,6.18
2018-01-27T03:44:04.564Z,6.13
2018-01-27T03:45:03.526Z,6.13
2018-01-27T03:46:03.551Z,6.13
2018-01-27T03:47:03.584Z,6.12
2018-01-27T03:48:04.127Z,6.15
2018-01-27T03:49:04.225Z,6.15
2018-01-27T03:50:03.570Z,6.13
2018-01-27T03:51:03.308Z,6.06
2018-01-27T03:52:06.837Z,6
2018-01-27T03:53:03.476Z,6.01
2018-01-27T03:54:04.689Z,6.02
2018-01-27T03:55:04.571Z,5.98
2018-01-27T03:56:05.075Z,5.97
2018-01-27T03:57:04.575Z,5.94
2018-01-27T03:58:05.655Z,5.94
2018-01-27T03:59:03.385Z,5.94
2018-01-27T04:00:03.888Z,5.87
2018-01-27T04:01:04.115Z,5.88
2018-01-27T04:02:03.393Z,5.85
2018-01-27T04:03:04.436Z,5.85
2018-01-27T04:04:03.403Z,5.83
2018-01-27T04:06:03.472Z,5.8
2018-01-27T04:07:06.120Z,5.75
2018-01-27T04:08:07.752Z,5.73
2018-01-27T04:09:03.754Z,5.7
2018-01-27T04:10:04.091Z,5.73
2018-01-27T04:11:03.301Z,5.74
2018-01-27T04:12:04.288Z,5.74
2018-01-27T04:13:04.995Z,5.73
2018-01-27T04:14:05.252Z,5.73
2018-01-27T04:15:04.301Z,5.77
2018-01-27T04:16:03.417Z,5.75
2018-01-27T04:17:05.108Z,5.73
2018-01-27T04:18:03.985Z,5.71
2018-01-27T04:19:03.643Z,5.7
2018-01-27T04:20:04.237Z,5.7
2018-01-27T04:21:05.716Z,5.67
2018-01-27T04:22:05.801Z,5.66
2018-01-27T04:23:03.732Z,5.63
2018-01-27T04:24:03.749Z,5.64
2018-01-27T04:25:03.369Z,5.63
2018-01-27T04:26:03.729Z,5.63
2018-01-27T04:27:04.089Z,5.64
2018-01-27T04:28:03.422Z,5.64
2018-01-27T04:29:03.629Z,5.67
2018-01-27T04:30:03.446Z,5.7
2018-01-27T04:31:04.214Z,5.73
2018-01-27T04:32:04.999Z,5.77
2018-01-27T04:33:04.761Z,5.8
2018-01-27T04:34:04.081Z,5.78
2018-01-27T04:35:03.590Z,5.81
2018-01-27T04:36:03.582Z,5.83
2018-01-27T04:37:03.859Z,5.81
2018-01-27T04:38:03.514Z,5.75
2018-01-27T04:39:03.431Z,5.81
2018-01-27T04:40:03.759Z,5.84
2018-01-27T04:41:03.227Z,5.84
2018-01-27T04:42:05.543Z,5.84
2018-01-27T04:43:04.129Z,5.78
2018-01-27T04:44:04.712Z,5.81
2018-01-27T04:45:03.500Z,5.85
2018-01-27T04:46:04.214Z,5.88
2018-01-27T04:47:03.688Z,5.9
2018-01-27T04:48:03.644Z,5.87
2018-01-27T04:49:03.399Z,5.83
2018-01-27T04:50:05.921Z,5.87
2018-01-27T04:51:05.330Z,5.9
2018-01-27T04:52:07.391Z,5.85
2018-01-27T04:53:03.585Z,5.8
2018-01-27T04:54:05.549Z,5.83
2018-01-27T04:55:06.422Z,5.84
2018-01-27T04:56:05.727Z,5.85
2018-01-27T04:57:05.794Z,5.84
2018-01-27T04:58:04.194Z,5.83
2018-01-27T04:59:06.921Z,5.84
2018-01-27T05:00:03.883Z,5.87
2018-01-27T05:01:06.222Z,5.87
2018-01-27T05:02:16.418Z,5.88
2018-01-27T05:03:05.471Z,5.92
2018-01-27T05:04:05.842Z,5.94
2018-01-27T05:05:04.279Z,5.94
2018-01-27T05:06:03.845Z,5.95
2018-01-27T05:07:04.688Z,5.84
2018-01-27T05:08:06.584Z,5.8
2018-01-27T05:09:10.496Z,5.83
2018-01-27T05:10:04.643Z,5.85
2018-01-27T05:11:04.301Z,5.9
2018-01-27T05:12:04.319Z,5.91
2018-01-27T05:13:07.093Z,5.94
2018-01-27T05:14:06.792Z,5.87
2018-01-27T05:15:06.472Z,5.8
2018-01-27T05:16:04.444Z,5.7
2018-01-27T05:17:04.611Z,5.67
2018-01-27T05:18:03.733Z,5.64
2018-01-27T05:19:07.267Z,5.67
2018-01-27T05:20:05.977Z,5.74
2018-01-27T05:21:05.489Z,5.75
2018-01-27T05:22:06.371Z,5.78
2018-01-27T05:23:05.086Z,5.8
2018-01-27T05:24:04.966Z,5.81
2018-01-27T05:25:09.424Z,5.83
2018-01-27T05:26:05.314Z,5.85
2018-01-27T05:27:04.815Z,5.85
2018-01-27T05:28:06.288Z,5.85
2018-01-27T05:29:04.477Z,5.87
2018-01-27T05:30:06.274Z,5.85
2018-01-27T05:31:04.503Z,5.9
2018-01-27T05:32:06.306Z,5.88
2018-01-27T05:33:05.757Z,5.91
2018-01-27T05:34:05.469Z,5.94
2018-01-27T05:35:05.093Z,5.98
2018-01-27T05:36:04.786Z,5.97
2018-01-27T05:37:03.898Z,5.97
2018-01-27T05:38:03.758Z,5.97
2018-01-27T05:39:04.028Z,5.97
2018-01-27T05:40:05.996Z,5.97
2018-01-27T05:41:03.860Z,5.97
2018-01-27T05:42:07.600Z,5.94
2018-01-27T05:43:06.216Z,5.97
2018-01-27T05:44:06.658Z,5.97
2018-01-27T05:45:07.264Z,5.97
2018-01-27T05:46:03.930Z,5.95
2018-01-27T05:47:04.072Z,5.97
2018-01-27T05:48:04.523Z,5.98
2018-01-27T05:49:04.687Z,5.97
2018-01-27T05:50:03.759Z,5.95
2018-01-27T05:51:04.059Z,5.95
2018-01-27T05:52:03.503Z,5.87
2018-01-27T05:53:03.507Z,5.83
2018-01-27T05:54:03.609Z,5.75
2018-01-27T05:55:03.649Z,5.7
2018-01-27T05:56:03.448Z,5.62
2018-01-27T05:59:03.749Z,5.51
2018-01-27T06:00:03.428Z,5.51
2018-01-27T06:01:03.568Z,5.53
2018-01-27T06:02:03.510Z,5.57
2018-01-27T06:03:03.489Z,5.56
2018-01-27T06:04:03.579Z,5.54
2018-01-27T06:05:03.431Z,5.51
2018-01-27T06:06:03.545Z,5.45
2018-01-27T06:07:03.561Z,5.47
2018-01-27T06:08:03.492Z,5.51
2018-01-27T06:09:03.501Z,5.51
2018-01-27T06:10:03.363Z,5.51
2018-01-27T06:11:03.567Z,5.49
2018-01-27T06:12:03.546Z,5.53
2018-01-27T06:13:03.495Z,5.49
2018-01-27T06:14:03.653Z,5.46
2018-01-27T06:15:03.367Z,5.5
2018-01-27T06:16:03.397Z,5.43
2018-01-27T06:17:03.496Z,5.43
2018-01-27T06:18:03.445Z,5.4
2018-01-27T06:19:03.480Z,5.33
2018-01-27T06:20:03.414Z,5.4
2018-01-27T06:21:03.418Z,5.42
2018-01-27T06:22:03.601Z,5.45
2018-01-27T06:23:03.556Z,5.45
2018-01-27T06:24:03.624Z,5.49
2018-01-27T06:25:03.630Z,5.5
2018-01-27T06:26:03.455Z,5.53
2018-01-27T06:27:03.484Z,5.54
2018-01-27T06:28:03.589Z,5.59
2018-01-27T06:29:03.583Z,5.62
2018-01-27T06:30:03.586Z,5.62
2018-01-27T06:31:03.538Z,5.63
2018-01-27T06:32:03.542Z,5.62
2018-01-27T06:33:03.563Z,5.63
2018-01-27T06:34:03.650Z,5.64
2018-01-27T06:35:03.524Z,5.64
2018-01-27T06:36:03.725Z,5.64
2018-01-27T06:37:03.731Z,5.7
2018-01-27T06:38:03.851Z,5.67
2018-01-27T06:39:03.464Z,5.66
2018-01-27T06:40:05.017Z,5.6
2018-01-27T06:41:03.640Z,5.64
2018-01-27T06:42:03.658Z,5.62
2018-01-27T06:43:03.726Z,5.64
2018-01-27T06:44:03.549Z,5.64
2018-01-27T06:45:03.617Z,5.66
2018-01-27T06:46:03.669Z,5.67
2018-01-27T06:47:03.679Z,5.7
2018-01-27T06:48:03.580Z,5.74
2018-01-27T06:49:03.556Z,5.74
2018-01-27T06:50:04.030Z,5.77
2018-01-27T06:51:03.709Z,5.74
2018-01-27T06:52:03.828Z,5.77
2018-01-27T06:53:02.812Z,5.75
2018-01-27T06:54:02.873Z,5.77
2018-01-27T06:55:02.767Z,5.8
2018-01-27T06:56:02.811Z,5.77
2018-01-27T06:57:02.908Z,5.83
2018-01-27T06:58:02.846Z,5.83
2018-01-27T06:59:02.804Z,5.81
2018-01-27T07:00:02.770Z,5.78
2018-01-27T07:01:02.910Z,5.83
2018-01-27T07:02:03.062Z,5.84
2018-01-27T07:03:02.770Z,5.81
2018-01-27T07:04:02.929Z,5.83
2018-01-27T07:05:02.736Z,5.81
2018-01-27T07:06:03.048Z,5.81
2018-01-27T07:07:02.990Z,5.81
2018-01-27T07:08:02.831Z,5.83
2018-01-27T07:09:02.838Z,5.81
2018-01-27T07:10:02.925Z,5.78
2018-01-27T07:11:02.774Z,5.78
2018-01-27T07:12:02.935Z,5.78
2018-01-27T07:13:03.009Z,5.69
2018-01-27T07:14:02.868Z,5.67
2018-01-27T07:15:02.944Z,5.67
2018-01-27T07:16:02.964Z,5.71
2018-01-27T07:17:02.869Z,5.74
2018-01-27T07:18:02.896Z,5.64
2018-01-27T07:19:02.953Z,5.59
2018-01-27T07:20:03.123Z,5.56
2018-01-27T07:21:02.883Z,5.45
2018-01-27T07:22:02.735Z,5.49
2018-01-27T07:23:02.999Z,5.5
2018-01-27T07:24:02.924Z,5.56
2018-01-27T07:25:03.038Z,5.56
2018-01-27T07:26:02.941Z,5.62
2018-01-27T07:27:02.803Z,5.59
2018-01-27T07:28:02.913Z,5.59
2018-01-27T07:29:03.024Z,5.62
2018-01-27T07:30:03.017Z,5.53
2018-01-27T07:31:03.137Z,5.56
2018-01-27T07:32:03.018Z,5.6
2018-01-27T07:33:02.823Z,5.62
2018-01-27T07:34:02.899Z,5.6
2018-01-27T07:35:02.986Z,5.63
2018-01-27T07:36:02.901Z,5.59
2018-01-27T07:37:02.900Z,5.59
2018-01-27T07:38:03.037Z,5.62
2018-01-27T07:39:03.069Z,5.63
2018-01-27T07:40:03.835Z,5.63
2018-01-27T07:41:03.061Z,5.57
2018-01-27T07:42:02.859Z,5.56
2018-01-27T07:43:02.978Z,5.42
2018-01-27T07:44:02.941Z,5.28
2018-01-27T07:45:03.158Z,5.22
2018-01-27T07:46:02.828Z,5.16
2018-01-27T07:47:02.825Z,5.1
2018-01-27T07:48:03.015Z,5.1
2018-01-27T07:49:02.977Z,5.08
2018-01-27T07:50:02.946Z,5.05
2018-01-27T07:51:02.817Z,5.04
2018-01-27T07:52:02.880Z,5.11
2018-01-27T07:53:03.071Z,5.15
2018-01-27T07:54:02.858Z,5.14
2018-01-27T07:55:02.925Z,5.07
2018-01-27T07:56:03.001Z,5
2018-01-27T07:57:02.995Z,5.05
2018-01-27T07:58:03.129Z,5.1
2018-01-27T07:59:03.007Z,5.1
2018-01-27T08:00:03.018Z,5.05
2018-01-27T08:01:03.068Z,5.1
2018-01-27T08:02:03.075Z,5.11
2018-01-27T08:03:03.082Z,5.1
2018-01-27T08:04:02.861Z,5.08
2018-01-27T08:05:03.147Z,5.04
2018-01-27T08:06:02.984Z,5
2018-01-27T08:07:03.009Z,4.98
2018-01-27T08:08:02.978Z,4.98
2018-01-27T08:09:02.983Z,5.04
2018-01-27T08:10:03.020Z,5.05
2018-01-27T08:11:02.876Z,5.04
2018-01-27T08:12:03.120Z,5.05
2018-01-27T08:13:03.062Z,5.02
2018-01-27T08:14:03.047Z,5.02
2018-01-27T08:15:02.909Z,5
2018-01-27T08:16:03.082Z,4.91
2018-01-27T08:17:03.099Z,4.98
2018-01-27T08:18:02.866Z,5.02
2018-01-27T08:19:03.009Z,5
2018-01-27T08:20:03.008Z,4.9
2018-01-27T08:21:03.605Z,4.87
2018-01-27T08:22:03.095Z,4.87
2018-01-27T08:23:03.030Z,4.91
2018-01-27T08:24:03.165Z,4.74
2018-01-27T08:25:03.081Z,4.74
2018-01-27T08:26:02.918Z,4.7
2018-01-27T08:27:03.067Z,4.72
2018-01-27T08:28:03.329Z,4.67
2018-01-27T08:29:03.046Z,4.73
2018-01-27T08:30:03.179Z,4.73
2018-01-27T08:31:03.094Z,4.7
2018-01-27T08:32:03.169Z,4.77
2018-01-27T08:33:03.133Z,4.83
2018-01-27T08:36:17.196Z,4.73
2018-01-27T08:37:03.036Z,4.77
2018-01-27T08:38:02.989Z,4.84
2018-01-27T08:39:03.138Z,4.83
2018-01-27T08:40:03.023Z,4.86
2018-01-27T08:41:03.084Z,4.9
2018-01-27T08:42:03.159Z,4.87
2018-01-27T08:43:03.147Z,4.84
2018-01-27T08:44:03.165Z,4.81
2018-01-27T08:45:03.000Z,4.69
2018-01-27T08:46:03.140Z,4.62
2018-01-27T08:47:03.097Z,4.67
2018-01-27T08:48:03.114Z,4.67
2018-01-27T08:49:03.070Z,4.7
2018-01-27T08:50:03.071Z,4.74
2018-01-27T08:51:03.066Z,4.81
2018-01-27T08:52:03.146Z,4.83
2018-01-27T08:53:03.067Z,4.87
2018-01-27T08:54:03.248Z,4.81
2018-01-27T08:55:03.156Z,4.84
2018-01-27T08:56:03.157Z,4.93
2018-01-27T08:57:03.117Z,4.97
2018-01-27T08:58:05.483Z,4.93
2018-01-27T08:59:03.191Z,4.97
2018-01-27T09:00:03.005Z,4.97
2018-01-27T09:01:03.065Z,4.97
2018-01-27T09:02:03.130Z,4.81
2018-01-27T09:03:03.102Z,4.91
2018-01-27T09:04:03.203Z,4.83
2018-01-27T09:05:03.114Z,4.87
2018-01-27T09:06:28.171Z,4.98
2018-01-27T09:07:03.079Z,4.93
2018-01-27T09:08:03.000Z,4.9
2018-01-27T09:09:03.250Z,4.97
2018-01-27T09:10:19.448Z,5.01
2018-01-27T09:11:19.378Z,5.05
2018-01-27T09:13:19.360Z,5.08
2018-01-27T09:14:19.378Z,5.12
2018-01-27T09:15:19.368Z,5.11
2018-01-27T09:16:19.449Z,5.11
2018-01-27T09:17:19.382Z,5.11
2018-01-27T09:18:19.413Z,5.15
2018-01-27T09:19:19.375Z,5.18
2018-01-27T09:20:19.148Z,5.19
2018-01-27T09:21:19.193Z,5.18
2018-01-27T09:22:19.713Z,5.15
2018-01-27T09:23:19.360Z,5.18
2018-01-27T09:24:18.230Z,5.18
2018-01-27T09:25:18.260Z,5.01
2018-01-27T09:26:18.244Z,5.08
2018-01-27T09:27:18.622Z,5.14
2018-01-27T09:28:18.424Z,5.08
2018-01-27T09:29:18.079Z,5.02
2018-01-27T09:30:18.625Z,4.88
2018-01-27T09:31:18.244Z,4.97
2018-01-27T09:32:18.160Z,5.01
2018-01-27T09:33:18.159Z,5.11
2018-01-27T09:34:18.128Z,5.14
2018-01-27T09:35:18.337Z,5.15
2018-01-27T09:36:18.231Z,5.19
2018-01-27T09:37:18.292Z,5.15
2018-01-27T09:38:18.288Z,4.95
2018-01-27T09:39:18.196Z,4.97
2018-01-27T09:40:18.326Z,5.01
2018-01-27T09:41:18.240Z,5.04
2018-01-27T09:42:18.235Z,5.14
2018-01-27T09:43:18.293Z,5.07
2018-01-27T09:44:18.248Z,5.05
2018-01-27T09:45:18.222Z,5.16
2018-01-27T09:46:18.104Z,5.18
2018-01-27T09:47:18.328Z,5.18
2018-01-27T09:48:19.327Z,5.21
2018-01-27T09:49:18.370Z,5.28
2018-01-27T09:50:18.374Z,5.28
2018-01-27T09:51:18.332Z,5.28
2018-01-27T09:52:18.424Z,5.3
2018-01-27T09:53:18.220Z,5.3
2018-01-27T09:54:18.311Z,5.38
2018-01-27T09:55:18.329Z,5.42
2018-01-27T09:56:18.268Z,5.38
2018-01-27T09:57:49.829Z,5.4
2018-01-27T09:58:22.147Z,5.43
2018-01-27T09:59:22.234Z,5.45
2018-01-27T10:00:19.862Z,5.49
2018-01-27T10:01:19.288Z,5.51
2018-01-27T10:02:20.848Z,5.51
2018-01-27T10:03:19.652Z,5.54
2018-01-27T10:04:18.740Z,5.56
2018-01-27T10:05:22.174Z,5.57
2018-01-27T10:06:20.337Z,5.57
2018-01-27T10:07:19.281Z,5.56
2018-01-27T10:08:18.581Z,5.6
2018-01-27T10:09:27.015Z,5.63
2018-01-27T10:10:22.794Z,5.64
2018-01-27T10:11:29.661Z,5.66
2018-01-27T10:12:23.630Z,5.64
2018-01-27T10:13:19.618Z,5.64
2018-01-27T10:14:19.242Z,5.66
2018-01-27T10:15:19.044Z,5.67
2018-01-27T10:16:21.968Z,5.66
2018-01-27T10:17:20.022Z,5.64
2018-01-27T10:18:17.984Z,5.59
2018-01-27T10:19:47.137Z,5.39
2018-01-27T10:20:18.860Z,5.38
2018-01-27T10:21:19.236Z,5.35
2018-01-27T10:22:18.371Z,5.32
2018-01-27T10:23:18.748Z,5.23
2018-01-27T10:24:18.048Z,5.19
2018-01-27T10:25:21.139Z,5.18
2018-01-27T10:26:25.060Z,5.16
2018-01-27T10:27:19.582Z,5.05
2018-01-27T10:28:23.413Z,4.98
2018-01-27T10:29:19.286Z,5.02
2018-01-27T10:30:20.476Z,5
2018-01-27T10:31:18.284Z,5.05
2018-01-27T10:32:20.532Z,5.14
2018-01-27T10:33:18.023Z,5.18
2018-01-27T10:34:19.076Z,5.26
2018-01-27T10:35:20.123Z,5.26
2018-01-27T10:36:21.672Z,5.28
2018-01-27T10:37:18.971Z,5.3
2018-01-27T10:38:19.471Z,5.36
2018-01-27T10:39:17.923Z,5.46
2018-01-27T10:40:17.719Z,5.38
2018-01-27T10:41:18.988Z,5.33
2018-01-27T10:42:20.098Z,5.36
2018-01-27T10:43:18.603Z,5.39
2018-01-27T10:44:21.179Z,5.39
2018-01-27T10:45:20.189Z,5.39
2018-01-27T10:46:17.879Z,5.3
2018-01-27T10:47:19.232Z,5.32
2018-01-27T10:48:18.391Z,5.42
2018-01-27T10:49:19.746Z,5.22
2018-01-27T10:50:20.215Z,5.15
2018-01-27T10:51:19.828Z,5.1
2018-01-27T10:52:19.007Z,5.05
2018-01-27T10:53:19.286Z,4.94
2018-01-27T10:54:20.591Z,5.01
2018-01-27T10:55:18.225Z,5.04
2018-01-27T10:56:18.267Z,4.98
2018-01-27T10:57:19.638Z,4.91
2018-01-27T10:58:20.467Z,4.94
2018-01-27T10:59:25.780Z,5.05
2018-01-27T11:00:21.547Z,5.1
2018-01-27T11:01:18.883Z,5.05
2018-01-27T11:02:18.200Z,5.07
2018-01-27T11:03:18.105Z,5.07
2018-01-27T11:04:20.159Z,5.11
2018-01-27T11:05:18.899Z,5.08
2018-01-27T11:06:18.228Z,5.07
2018-01-27T11:07:22.151Z,4.98
2018-01-27T11:08:21.297Z,5
2018-01-27T11:09:19.810Z,5
2018-01-27T11:10:19.747Z,5.01
2018-01-27T11:11:21.017Z,5.07
2018-01-27T11:12:18.388Z,5.02
2018-01-27T11:13:18.831Z,5.07
2018-01-27T11:14:18.795Z,5.02
2018-01-27T11:15:19.033Z,5.08
2018-01-27T11:16:19.181Z,5.11
2018-01-27T11:17:19.666Z,5.02
2018-01-27T11:18:19.433Z,5.07
2018-01-27T11:19:19.451Z,5.1
2018-01-27T11:20:19.258Z,5.1
2018-01-27T11:21:18.974Z,5.11
2018-01-27T11:22:18.711Z,5.14
2018-01-27T11:23:20.438Z,5.11
2018-01-27T11:24:18.318Z,5.14
2018-01-27T11:25:18.583Z,5.18
2018-01-27T11:26:19.764Z,5.28
2018-01-27T11:27:19.816Z,5.33
2018-01-27T11:28:22.849Z,5.35
2018-01-27T11:29:27.542Z,5.4
2018-01-27T11:30:18.992Z,5.39
2018-01-27T11:31:20.824Z,5.38
2018-01-27T11:32:20.019Z,5.42
2018-01-27T11:33:18.865Z,5.42
2018-01-27T11:34:19.780Z,5.45
2018-01-27T11:35:20.246Z,5.49
2018-01-27T11:36:18.734Z,5.49
2018-01-27T11:37:23.703Z,5.49
2018-01-27T11:38:17.965Z,5.47
2018-01-27T11:39:17.908Z,5.5
2018-01-27T11:40:18.236Z,5.46
2018-01-27T11:41:17.966Z,5.46
2018-01-27T11:42:18.134Z,5.47
2018-01-27T11:43:18.425Z,5.4
2018-01-27T11:44:18.337Z,5.4
2018-01-27T11:45:18.233Z,5.43
2018-01-27T11:46:18.395Z,5.45
2018-01-27T11:47:18.194Z,5.47
2018-01-27T11:48:18.047Z,5.51
2018-01-27T11:49:18.138Z,5.51
2018-01-27T11:50:18.194Z,5.57
2018-01-27T11:51:18.270Z,5.59
2018-01-27T11:52:18.245Z,5.6
2018-01-27T11:53:18.222Z,5.6
2018-01-27T11:54:18.169Z,5.56
2018-01-27T11:55:18.412Z,5.5
2018-01-27T11:56:18.265Z,5.51
2018-01-27T11:57:18.285Z,5.53
2018-01-27T11:58:18.149Z,5.56
2018-01-27T11:59:18.184Z,5.57
2018-01-27T12:00:18.127Z,5.57
2018-01-27T12:01:18.227Z,5.56
2018-01-27T12:02:18.143Z,5.56
2018-01-27T12:03:18.222Z,5.57
2018-01-27T12:04:18.067Z,5.6
2018-01-27T12:05:18.428Z,5.6
2018-01-27T12:06:18.093Z,5.6
2018-01-27T12:07:18.435Z,5.62
2018-01-27T12:08:18.404Z,5.63
2018-01-27T12:09:18.130Z,5.6
2018-01-27T12:10:18.724Z,5.63
2018-01-27T12:11:18.270Z,5.66
2018-01-27T12:12:18.207Z,5.63
2018-01-27T12:13:18.258Z,5.62
2018-01-27T12:14:18.131Z,5.64
2018-01-27T12:15:18.235Z,5.64
2018-01-27T12:16:18.370Z,5.69
2018-01-27T12:17:18.224Z,5.67
2018-01-27T12:18:18.267Z,5.7
2018-01-27T12:19:18.259Z,5.7
2018-01-27T12:20:18.140Z,5.66
2018-01-27T12:21:18.275Z,5.66
2018-01-27T12:22:18.197Z,5.69
2018-01-27T12:23:18.356Z,5.7
2018-01-27T12:24:18.203Z,5.7
2018-01-27T12:25:18.175Z,5.71
2018-01-27T12:26:18.247Z,5.71
2018-01-27T12:27:18.361Z,5.69
2018-01-27T12:30:18.652Z,5.69
2018-01-27T12:31:18.323Z,5.73
2018-01-27T12:32:18.183Z,5.7
2018-01-27T12:33:18.455Z,5.64
2018-01-27T12:34:18.345Z,5.66
2018-01-27T12:35:18.342Z,5.71
2018-01-27T12:36:18.333Z,5.71
2018-01-27T12:37:18.308Z,5.75
2018-01-27T12:38:18.110Z,5.75
2018-01-27T12:39:18.398Z,5.77
2018-01-27T12:40:18.246Z,5.74
2018-01-27T12:41:18.242Z,5.8
2018-01-27T12:42:18.305Z,5.8
2018-01-27T12:43:18.201Z,5.77
2018-01-27T12:44:18.273Z,5.77
2018-01-27T12:45:18.306Z,5.7
2018-01-27T12:46:18.183Z,5.7
2018-01-27T12:47:18.352Z,5.7
2018-01-27T12:48:18.258Z,5.73
2018-01-27T12:49:18.332Z,5.77
2018-01-27T12:50:18.170Z,5.8
2018-01-27T12:51:18.277Z,5.8
2018-01-27T12:52:18.415Z,5.8
2018-01-27T12:53:18.394Z,5.81
2018-01-27T12:54:18.438Z,5.84
2018-01-27T12:55:18.410Z,5.83
2018-01-27T12:56:18.276Z,5.85
2018-01-27T12:57:18.442Z,5.85
2018-01-27T12:58:18.494Z,5.88
2018-01-27T12:59:18.270Z,5.9
2018-01-27T13:00:18.510Z,5.9
2018-01-27T13:01:18.459Z,5.88
2018-01-27T13:02:18.392Z,5.91
2018-01-27T13:03:18.577Z,5.9
2018-01-27T13:04:18.436Z,5.85
2018-01-27T13:05:18.440Z,5.85
2018-01-27T13:06:18.499Z,5.9
2018-01-27T13:07:18.424Z,5.88
2018-01-27T13:08:18.327Z,5.92
2018-01-27T13:09:18.329Z,5.88
2018-01-27T13:10:18.290Z,5.94
2018-01-27T13:11:18.394Z,5.95
2018-01-27T13:12:18.301Z,5.95
2018-01-27T13:13:18.368Z,5.88
2018-01-27T13:14:18.299Z,5.8
2018-01-27T13:15:19.636Z,5.8
2018-01-27T13:16:18.466Z,5.83
2018-01-27T13:17:18.499Z,5.84
2018-01-27T13:18:18.399Z,5.85
2018-01-27T13:19:18.469Z,5.91
2018-01-27T13:20:18.477Z,5.88
2018-01-27T13:21:18.645Z,5.85
2018-01-27T13:22:18.433Z,5.84
2018-01-27T13:23:18.471Z,5.85
2018-01-27T13:24:18.430Z,5.84
2018-01-27T13:25:18.413Z,5.81
2018-01-27T13:26:18.352Z,5.75
2018-01-27T13:27:22.495Z,5.77
2018-01-27T13:28:18.337Z,5.8
2018-01-27T13:29:18.557Z,5.81
2018-01-27T13:30:18.391Z,5.81